Time;durP1;ratioP1;P1;durP2;ratioP2;P2;SDS_P1;SDS_P2;PMS_P1;PMS_P2;Temp;Humidity;BMP_temperature;BMP_pressure;BME280_temperature;BME280_humidity;BME280_pressure;Samples;Min_cycle;Max_cycle;Signal;HPM_P1;HPM_P2
2022/04/02 00:00:12;;;;;;;6.00;3.60;;;;;;;3.85;62.09;100685.88;690391;28;1013;-84
2022/04/02 00:00:33;;;;;;;5.90;3.60;;;;;;;4.01;62.09;100688.47;690249;28;1092;-84
2022/04/02 00:00:55;;;;;;;3.70;3.30;;;;;;;3.94;61.57;100681.19;691244;28;1131;-84
2022/04/02 00:01:16;;;;;;;3.50;3.20;;;;;;;4.03;62.04;100697.16;690259;28;1224;-85
2022/04/02 00:01:39;;;;;;;3.40;3.10;;;;;;;3.99;61.57;100672.00;682113;28;1328;-84
2022/04/02 00:02:00;;;;;;;3.90;3.60;;;;;;;4.01;61.72;100682.41;685298;28;1227;-84
2022/04/02 00:02:21;;;;;;;3.72;3.33;;;;;;;3.97;61.70;100681.34;685386;28;1684;-84
2022/04/02 00:02:41;;;;;;;4.93;3.60;;;;;;;3.96;62.07;100666.66;687954;28;1202;-85
2022/04/02 00:03:02;;;;;;;4.40;3.30;;;;;;;4.05;61.81;100679.19;687854;28;1373;-85
2022/04/02 00:03:23;;;;;;;4.60;3.20;;;;;;;4.04;61.46;100678.28;688021;28;792;-84
2022/04/02 00:03:43;;;;;;;3.53;3.15;;;;;;;4.08;61.49;100674.16;690778;28;1042;-84
2022/04/02 00:04:04;;;;;;;4.00;3.40;;;;;;;4.03;61.38;100671.34;693912;28;1114;-84
2022/04/02 00:04:24;;;;;;;3.67;3.38;;;;;;;4.08;61.36;100675.06;682685;28;1311;-84
2022/04/02 00:04:45;;;;;;;3.50;3.20;;;;;;;4.12;61.34;100686.44;687886;28;1835;-85
2022/04/02 00:05:06;;;;;;;3.30;3.00;;;;;;;4.01;61.56;100672.06;690742;28;1138;-84
2022/04/02 00:05:27;;;;;;;3.47;3.17;;;;;;;4.08;61.74;100682.81;696356;28;827;-84
2022/04/02 00:05:49;;;;;;;3.28;3.08;;;;;;;4.13;61.43;100687.31;690600;28;1108;-84
2022/04/02 00:06:09;;;;;;;3.10;2.90;;;;;;;4.07;61.53;100672.41;690628;28;1906;-84
2022/04/02 00:06:30;;;;;;;3.33;3.13;;;;;;;4.06;61.61;100675.78;693333;28;1183;-85
2022/04/02 00:06:52;;;;;;;3.88;3.60;;;;;;;4.06;61.48;100674.06;693434;28;1130;-84
2022/04/02 00:07:13;;;;;;;3.70;3.45;;;;;;;4.05;61.46;100672.31;690912;28;966;-84
2022/04/02 00:07:34;;;;;;;3.37;3.13;;;;;;;4.14;61.11;100684.84;687743;28;1372;-84
2022/04/02 00:07:55;;;;;;;3.00;2.80;;;;;;;4.03;61.70;100668.75;689870;28;1232;-84
2022/04/02 00:08:16;;;;;;;3.40;3.10;;;;;;;4.07;61.58;100673.31;690599;28;1114;-84
2022/04/02 00:08:36;;;;;;;3.90;3.15;;;;;;;4.09;61.26;100669.09;693570;28;1212;-84
2022/04/02 00:08:57;;;;;;;4.40;3.30;;;;;;;4.13;61.10;100677.88;690729;28;1257;-84
2022/04/02 00:09:17;;;;;;;4.40;3.40;;;;;;;4.08;61.36;100664.75;690639;28;1112;-84
2022/04/02 00:09:38;;;;;;;4.03;3.50;;;;;;;4.12;61.25;100676.13;687516;28;1037;-84
2022/04/02 00:10:17;;;;;;;3.90;3.43;;;;;;;4.02;61.29;100667.00;688076;28;1246;-84
2022/04/02 00:10:37;;;;;;;3.60;3.30;;;;;;;4.03;61.04;100668.75;688047;28;1131;-84
2022/04/02 00:10:58;;;;;;;3.60;3.30;;;;;;;4.10;61.43;100686.38;690699;28;1244;-84
2022/04/02 00:11:19;;;;;;;3.90;3.50;;;;;;;4.05;61.34;100672.31;687546;28;1257;-84
2022/04/02 00:11:39;;;;;;;3.50;3.20;;;;;;;4.07;60.99;100677.56;687664;28;1194;-84
2022/04/02 00:12:00;;;;;;;3.50;3.20;;;;;;;4.06;61.21;100668.03;692975;28;1096;-84
2022/04/02 00:12:21;;;;;;;3.47;3.17;;;;;;;4.03;61.45;100668.75;692501;28;1516;-84
2022/04/02 00:12:41;;;;;;;3.60;3.30;;;;;;;4.06;61.57;100671.50;696198;28;1338;-84
2022/04/02 00:13:02;;;;;;;3.70;3.40;;;;;;;4.08;61.25;100679.34;690774;28;1299;-84
2022/04/02 00:13:23;;;;;;;3.70;3.40;;;;;;;4.01;61.49;100670.38;690757;28;1282;-85
2022/04/02 00:13:44;;;;;;;3.95;3.30;;;;;;;4.01;61.58;100672.06;690815;28;1219;-84
2022/04/02 00:14:04;;;;;;;5.17;3.40;;;;;;;3.99;61.57;100655.59;685120;28;1691;-84
2022/04/02 00:14:25;;;;;;;5.23;3.20;;;;;;;4.04;61.27;100677.41;685304;28;897;-84
2022/04/02 00:14:46;;;;;;;5.70;3.38;;;;;;;4.02;61.62;100667.00;687600;28;1394;-84
2022/04/02 00:15:07;;;;;;;4.20;3.10;;;;;;;4.00;61.15;100660.88;685395;28;1190;-84
2022/04/02 00:15:28;;;;;;;3.80;3.40;;;;;;;4.07;61.27;100675.88;693468;28;1290;-84
2022/04/02 00:15:49;;;;;;;3.50;3.20;;;;;;;3.98;61.44;100670.19;692702;28;1847;-84
2022/04/02 00:16:09;;;;;;;3.40;3.10;;;;;;;3.99;61.35;100671.09;690753;28;1141;-84
2022/04/02 00:16:30;;;;;;;3.00;2.80;;;;;;;3.96;61.71;100664.06;687992;28;1225;-84
2022/04/02 00:16:50;;;;;;;2.87;2.70;;;;;;;4.00;61.31;100673.78;685358;28;1091;-84
2022/04/02 00:17:11;;;;;;;3.00;2.80;;;;;;;3.94;61.11;100661.41;688116;28;1037;-84
2022/04/02 00:17:33;;;;;;;3.20;2.90;;;;;;;3.98;61.42;100670.19;687134;28;1731;-84
2022/04/02 00:17:53;;;;;;;3.20;2.90;;;;;;;3.95;61.85;100678.69;692151;28;1103;-84
2022/04/02 00:18:14;;;;;;;3.20;2.70;;;;;;;3.93;61.51;100675.13;688032;28;1004;-84
2022/04/02 00:18:35;;;;;;;2.72;2.53;;;;;;;3.91;61.60;100673.25;693240;28;1435;-84
2022/04/02 00:18:56;;;;;;;2.92;2.63;;;;;;;3.92;61.40;100660.44;682549;28;1367;-84
2022/04/02 00:19:16;;;;;;;3.25;2.90;;;;;;;3.93;61.46;100674.25;692041;28;1748;-84
2022/04/02 00:19:45;;;;;;;3.30;2.87;;;;;;;3.85;61.79;100662.63;695621;28;1162;-84
2022/04/02 00:20:06;;;;;;;3.20;3.00;;;;;;;3.96;61.64;100680.47;690664;28;1461;-84
2022/04/02 00:20:27;;;;;;;3.45;3.15;;;;;;;3.93;61.50;100669.09;690705;28;1161;-84
2022/04/02 00:20:47;;;;;;;3.60;3.30;;;;;;;3.94;61.35;100686.34;690675;28;1214;-85
2022/04/02 00:21:08;;;;;;;4.18;3.00;;;;;;;3.90;61.49;100669.81;693378;28;1109;-85
2022/04/02 00:21:29;;;;;;;4.05;3.15;;;;;;;3.93;61.36;100669.09;696339;28;838;-84
2022/04/02 00:21:49;;;;;;;3.63;3.00;;;;;;;3.99;61.18;100684.00;690601;28;1252;-84
2022/04/02 00:22:10;;;;;;;5.97;3.20;;;;;;;3.91;61.39;100670.69;693505;28;1373;-84
2022/04/02 00:22:31;;;;;;;6.50;3.22;;;;;;;3.91;61.25;100670.69;693464;28;989;-84
2022/04/02 00:23:39;;;;;;;4.70;2.90;;;;;;;3.91;61.53;100681.91;685150;28;1313;-85
2022/04/02 00:24:00;;;;;;;3.90;2.78;;;;;;;3.92;61.31;100678.50;685377;28;1123;-84
2022/04/02 00:24:21;;;;;;;4.20;2.85;;;;;;;3.91;61.08;100670.69;684981;28;1477;-84
2022/04/02 00:24:42;;;;;;;3.30;3.00;;;;;;;3.97;61.35;100676.19;685408;28;1023;-84
2022/04/02 00:25:03;;;;;;;3.25;2.95;;;;;;;4.02;61.38;100684.16;690355;28;1477;-84
2022/04/02 00:25:23;;;;;;;3.20;3.00;;;;;;;4.00;61.17;100686.69;692241;28;991;-84
2022/04/02 00:25:44;;;;;;;3.10;2.90;;;;;;;3.98;60.99;100675.38;693936;28;929;-84
2022/04/02 00:26:09;;;;;;;3.25;2.95;;;;;;;3.97;60.99;100668.44;698737;28;1906;-84
2022/04/02 00:26:29;;;;;;;2.84;2.60;;;;;;;4.00;61.04;100670.28;687474;28;1371;-84
2022/04/02 00:26:50;;;;;;;2.60;2.50;;;;;;;3.96;60.91;100670.16;687824;28;1824;-85
2022/04/02 00:27:10;;;;;;;3.00;2.80;;;;;;;4.02;60.88;100679.91;688073;28;1091;-84
2022/04/02 00:27:31;;;;;;;3.20;3.00;;;;;;;3.97;60.82;100660.69;687891;28;1120;-84
2022/04/02 00:27:51;;;;;;;3.33;3.13;;;;;;;3.97;60.84;100671.00;685323;28;1124;-84
2022/04/02 00:28:12;;;;;;;3.33;3.03;;;;;;;4.00;61.03;100680.63;682121;29;1163;-84
2022/04/02 00:28:34;;;;;;;3.30;3.00;;;;;;;3.92;61.09;100667.31;687354;28;1174;-83
2022/04/02 00:28:55;;;;;;;3.22;2.92;;;;;;;3.89;61.07;100677.47;690629;28;1416;-84
2022/04/02 00:29:15;;;;;;;3.33;3.13;;;;;;;3.91;60.72;100670.69;690191;28;1501;-84
2022/04/02 00:29:38;;;;;;;3.53;3.22;;;;;;;3.91;61.27;100668.09;681811;28;1149;-84
2022/04/02 00:29:58;;;;;;;3.78;3.25;;;;;;;3.92;60.87;100668.19;688989;28;1104;-84
2022/04/02 00:30:19;;;;;;;3.90;3.10;;;;;;;4.04;60.80;100683.44;693460;28;1503;-85
2022/04/02 00:30:40;;;;;;;3.85;3.10;;;;;;;4.04;61.00;100687.75;693452;28;936;-84
2022/04/02 00:31:01;;;;;;;3.78;3.22;;;;;;;3.97;60.54;100674.50;696088;28;1185;-84
2022/04/02 00:31:21;;;;;;;3.70;3.30;;;;;;;4.00;60.71;100680.63;693364;28;1109;-84
2022/04/02 00:31:43;;;;;;;4.30;3.20;;;;;;;3.95;60.90;100670.94;690549;28;1773;-84
2022/04/02 00:32:07;;;;;;;3.35;3.03;;;;;;;4.02;60.71;100668.66;693247;28;1956;-84
2022/04/02 00:32:29;;;;;;;2.85;2.70;;;;;;;4.03;60.60;100686.84;687907;28;847;-84
2022/04/02 00:32:51;;;;;;;4.40;2.75;;;;;;;3.96;60.63;100676.97;687874;28;1191;-83
2022/04/02 00:33:11;;;;;;;5.53;2.60;;;;;;;3.94;60.85;100673.44;682568;28;1468;-84
2022/04/02 00:33:32;;;;;;;6.60;2.70;;;;;;;3.94;60.77;100673.44;686338;28;1548;-84
2022/04/02 00:33:52;;;;;;;4.90;2.90;;;;;;;3.93;60.39;100669.09;690619;28;1107;-84
2022/04/02 00:34:13;;;;;;;3.90;3.00;;;;;;;3.93;60.91;100663.94;690622;28;1062;-84
2022/04/02 00:34:34;;;;;;;2.90;2.70;;;;;;;4.00;60.56;100678.94;693101;28;1734;-84
2022/04/02 00:34:54;;;;;;;2.50;2.40;;;;;;;3.90;60.83;100672.38;688925;28;1351;-84
2022/04/02 00:35:15;;;;;;;2.55;2.45;;;;;;;3.96;60.88;100664.97;685241;28;1576;-85
2022/04/02 00:35:35;;;;;;;2.80;2.60;;;;;;;3.94;60.56;100668.28;685165;28;1736;-84
2022/04/02 00:35:56;;;;;;;3.20;2.90;;;;;;;3.92;61.14;100667.31;690483;28;1278;-84
2022/04/02 00:36:19;;;;;;;3.30;3.00;;;;;;;4.01;61.01;100680.72;685001;28;1580;-84
2022/04/02 00:36:40;;;;;;;3.10;2.83;;;;;;;3.94;60.78;100670.88;685181;28;1287;-84
2022/04/02 00:37:00;;;;;;;2.90;2.70;;;;;;;3.90;60.58;100668.91;685126;28;1190;-84
2022/04/02 00:37:21;;;;;;;3.03;2.75;;;;;;;3.87;60.93;100663.59;687738;28;1695;-84
2022/04/02 00:37:41;;;;;;;4.20;2.93;;;;;;;3.96;60.99;100675.31;688060;28;949;-85
2022/04/02 00:38:02;;;;;;;3.72;2.80;;;;;;;3.96;60.73;100680.47;688178;28;1206;-84
2022/04/02 00:38:22;;;;;;;3.60;2.83;;;;;;;3.93;60.64;100677.72;685080;28;1704;-84
2022/04/02 00:38:43;;;;;;;3.10;2.90;;;;;;;3.92;61.22;100682.81;685332;28;998;-84
2022/04/02 00:39:05;;;;;;;2.97;2.78;;;;;;;3.80;61.10;100667.53;685227;28;1070;-84
2022/04/02 00:39:26;;;;;;;2.65;2.45;;;;;;;3.87;60.96;100679.97;687735;28;1687;-84
2022/04/02 00:39:47;;;;;;;2.90;2.70;;;;;;;3.87;60.59;100674.81;687557;28;1088;-85
2022/04/02 00:40:08;;;;;;;3.00;2.80;;;;;;;3.89;60.98;100675.78;685307;28;1058;-84
2022/04/02 00:40:29;;;;;;;2.97;2.70;;;;;;;3.93;60.89;100669.09;685277;28;1696;-84
2022/04/02 00:40:49;;;;;;;3.10;2.53;;;;;;;3.93;60.39;100675.13;687197;28;1207;-84
2022/04/02 00:41:10;;;;;;;3.83;2.80;;;;;;;3.94;61.00;100674.31;687821;28;1219;-83
2022/04/02 00:41:31;;;;;;;3.53;2.90;;;;;;;3.93;60.71;100671.66;683859;28;1151;-84
2022/04/02 00:41:51;;;;;;;3.60;2.90;;;;;;;4.02;60.71;100689.31;685348;28;1253;-84
2022/04/02 00:42:12;;;;;;;3.00;2.70;;;;;;;3.95;60.65;100690.72;687933;28;1141;-83
2022/04/02 00:42:33;;;;;;;2.70;2.50;;;;;;;3.86;60.59;100661.81;692291;28;1671;-84
2022/04/02 00:42:54;;;;;;;2.90;2.70;;;;;;;3.93;60.74;100674.25;692056;28;1282;-84
2022/04/02 00:43:21;;;;;;;2.97;2.78;;;;;;;4.01;60.94;100685.88;685251;28;1194;-84
2022/04/02 00:44:21;;;;;;;3.30;3.00;;;;;;;4.03;60.49;100689.41;684912;28;1213;-84
2022/04/02 00:44:42;;;;;;;3.85;2.80;;;;;;;3.90;60.42;100668.91;688583;28;1120;-84
2022/04/02 00:45:03;;;;;;;3.50;2.90;;;;;;;3.95;60.18;100681.28;688100;28;1127;-84
2022/04/02 00:45:23;;;;;;;3.00;2.80;;;;;;;3.95;60.20;100670.06;686212;28;1562;-84
2022/04/02 00:45:44;;;;;;;3.05;2.75;;;;;;;3.91;60.58;100668.09;682659;29;1212;-84
2022/04/02 00:46:07;;;;;;;3.00;2.70;;;;;;;4.02;60.65;100699.66;685077;28;1910;-84
2022/04/02 00:46:28;;;;;;;2.75;2.55;;;;;;;3.91;60.46;100670.69;687890;28;1336;-84
2022/04/02 00:46:48;;;;;;;2.95;2.70;;;;;;;3.92;60.37;100677.66;689700;28;1280;-84
2022/04/02 00:47:09;;;;;;;2.80;2.60;;;;;;;3.96;60.44;100679.56;690691;28;842;-84
2022/04/02 00:47:30;;;;;;;3.47;2.73;;;;;;;4.02;60.13;100685.06;690605;28;1017;-84
2022/04/02 00:47:51;;;;;;;3.40;2.80;;;;;;;3.90;60.33;100671.50;691234;28;1100;-84
2022/04/02 00:48:11;;;;;;;3.17;2.80;;;;;;;3.94;60.42;100670.88;690372;28;1087;-84
2022/04/02 00:48:32;;;;;;;2.97;2.77;;;;;;;4.00;60.34;100689.28;687685;28;1300;-84
2022/04/02 00:48:54;;;;;;;2.93;2.73;;;;;;;3.94;60.44;100679.47;690673;28;1111;-84
2022/04/02 00:49:16;;;;;;;3.00;2.80;;;;;;;3.96;60.37;100695.97;693443;28;912;-84
2022/04/02 00:49:37;;;;;;;3.00;2.80;;;;;;;3.82;60.19;100671.97;691201;28;1129;-84
2022/04/02 00:49:58;;;;;;;4.30;3.00;;;;;;;3.87;60.51;100679.09;687815;28;1406;-84
2022/04/02 00:50:19;;;;;;;3.80;2.92;;;;;;;3.89;60.29;100675.78;692976;28;1662;-84
2022/04/02 00:50:40;;;;;;;3.83;2.88;;;;;;;3.94;60.61;100681.19;695950;28;1724;-84
2022/04/02 00:51:02;;;;;;;2.80;2.60;;;;;;;3.90;60.21;100685.28;692795;28;1139;-84
2022/04/02 00:51:23;;;;;;;2.80;2.60;;;;;;;3.91;60.52;100671.56;690568;28;882;-84
2022/04/02 00:51:45;;;;;;;2.80;2.60;;;;;;;4.00;60.30;100685.78;685142;28;1989;-84
2022/04/02 00:52:06;;;;;;;3.20;2.60;;;;;;;4.01;60.56;100688.47;687919;28;966;-84
2022/04/02 00:52:27;;;;;;;3.60;2.65;;;;;;;3.93;60.41;100674.25;686296;28;1742;-84
2022/04/02 00:52:49;;;;;;;3.53;2.80;;;;;;;3.91;60.25;100673.25;688307;28;1115;-84
2022/04/02 00:53:11;;;;;;;3.60;2.90;;;;;;;3.95;60.22;100682.97;690636;28;1134;-84
2022/04/02 00:53:36;;;;;;;2.90;2.70;;;;;;;3.93;60.23;100669.09;690500;28;1701;-84
2022/04/02 00:53:57;;;;;;;3.25;2.75;;;;;;;3.93;60.10;100669.97;689528;28;1083;-84
2022/04/02 00:54:19;;;;;;;3.70;2.78;;;;;;;3.99;60.06;100679.75;690562;28;962;-84
2022/04/02 00:54:40;;;;;;;2.70;2.50;;;;;;;4.00;60.01;100680.63;690518;28;1172;-84
2022/04/02 00:55:01;;;;;;;2.70;2.50;;;;;;;3.98;60.37;100670.19;686170;28;1209;-84
2022/04/02 00:55:22;;;;;;;2.80;2.60;;;;;;;3.97;60.31;100681.34;690459;28;1509;-84
2022/04/02 00:55:59;;;;;;;3.60;2.80;;;;;;;3.97;60.02;100682.25;684917;28;1227;-83
2022/04/02 00:56:22;;;;;;;3.28;2.50;;;;;;;3.93;60.33;100674.25;687901;28;1282;-84
2022/04/02 00:56:43;;;;;;;2.70;2.50;;;;;;;4.02;60.25;100689.31;687804;28;1073;-84
2022/04/02 00:57:04;;;;;;;3.90;2.70;;;;;;;3.93;60.14;100671.66;690486;28;1055;-84
2022/04/02 00:57:25;;;;;;;2.93;2.63;;;;;;;3.93;60.14;100669.09;690686;28;795;-84
2022/04/02 00:57:47;;;;;;;2.90;2.60;;;;;;;3.98;60.10;100677.94;687566;28;1228;-84
2022/04/02 00:58:09;;;;;;;2.78;2.58;;;;;;;3.93;59.95;100669.09;693394;28;1129;-83
2022/04/02 00:58:31;;;;;;;3.05;2.80;;;;;;;3.96;59.90;100674.41;690549;28;1618;-84
2022/04/02 00:58:53;;;;;;;3.10;2.80;;;;;;;3.91;59.98;100675.84;689384;28;1174;-83
2022/04/02 00:59:15;;;;;;;3.53;2.63;;;;;;;3.91;60.23;100671.56;685225;28;1155;-84
2022/04/02 00:59:36;;;;;;;3.65;2.40;;;;;;;4.00;60.31;100680.63;687457;28;1375;-85
2022/04/02 00:59:58;;;;;;;3.50;2.53;;;;;;;4.01;60.23;100688.47;690649;28;1135;-83
2022/04/02 01:00:18;;;;;;;2.80;2.43;;;;;;;3.94;60.02;100676.03;690537;28;1218;-84
2022/04/02 01:00:40;;;;;;;2.65;2.45;;;;;;;3.94;60.07;100671.72;693299;28;1234;-84
2022/04/02 01:01:01;;;;;;;2.60;2.40;;;;;;;3.91;60.17;100668.09;690443;28;1080;-84
2022/04/02 01:01:28;;;;;;;2.45;2.33;;;;;;;3.94;60.07;100678.59;687724;28;1375;-84
2022/04/02 01:01:49;;;;;;;2.42;2.30;;;;;;;3.94;60.05;100676.91;688328;28;1136;-84
2022/04/02 01:02:09;;;;;;;2.60;2.40;;;;;;;3.95;59.95;100673.53;690424;28;1765;-84
2022/04/02 01:02:30;;;;;;;3.10;2.60;;;;;;;3.95;59.70;100678.69;693391;28;964;-84
2022/04/02 01:03:02;;;;;;;3.17;2.47;;;;;;;3.92;60.37;100687.97;691441;28;1185;-84
2022/04/02 01:03:23;;;;;;;2.30;2.10;;;;;;;3.92;60.22;100687.97;687791;28;1554;-84
2022/04/02 01:03:45;;;;;;;2.50;2.30;;;;;;;3.93;60.34;100688.03;690467;28;1209;-84
2022/04/02 01:04:06;;;;;;;2.90;2.60;;;;;;;3.87;60.19;100671.34;693214;28;1390;-84
2022/04/02 01:04:32;;;;;;;2.72;2.53;;;;;;;3.98;60.35;100677.94;685204;28;2110;-84
2022/04/02 01:04:56;;;;;;;2.50;2.40;;;;;;;3.94;59.88;100682.06;686313;28;1104;-84
2022/04/02 01:05:18;;;;;;;2.65;2.50;;;;;;;3.99;60.13;100678.84;690541;28;1366;-84
2022/04/02 01:05:40;;;;;;;2.80;2.60;;;;;;;3.95;59.87;100675.22;693346;28;977;-84
2022/04/02 01:06:03;;;;;;;4.10;2.80;;;;;;;3.96;59.96;100677.88;695452;28;1902;-84
2022/04/02 01:06:29;;;;;;;3.72;2.60;;;;;;;3.91;60.15;100668.09;691287;28;1800;-84
2022/04/02 01:06:51;;;;;;;4.40;2.83;;;;;;;4.00;59.79;100691.84;688681;28;1080;-84
2022/04/02 01:07:20;;;;;;;3.35;3.03;;;;;;;3.97;59.62;100678.75;685166;28;1142;-83
2022/04/02 01:07:41;;;;;;;3.42;2.95;;;;;;;3.93;60.09;100669.97;687817;28;1134;-84
2022/04/02 01:08:06;;;;;;;3.17;2.60;;;;;;;3.97;59.95;100665.84;687784;28;1339;-84
2022/04/02 01:08:28;;;;;;;4.72;2.42;;;;;;;3.98;59.75;100667.63;685284;28;1270;-83
2022/04/02 01:08:49;;;;;;;3.90;2.50;;;;;;;3.99;59.87;100678.84;690753;28;1920;-84
2022/04/02 01:09:10;;;;;;;3.78;2.60;;;;;;;3.99;59.64;100684.00;693170;28;1238;-84
2022/04/02 01:09:31;;;;;;;4.00;2.75;;;;;;;3.99;59.70;100684.91;692788;28;1135;-84
2022/04/02 01:09:51;;;;;;;4.27;2.70;;;;;;;3.94;60.00;100688.94;693992;28;1095;-84
2022/04/02 01:10:12;;;;;;;3.47;2.70;;;;;;;3.97;59.59;100683.91;687973;28;1124;-84
2022/04/02 01:10:41;;;;;;;2.80;2.65;;;;;;;4.00;59.99;100686.69;690055;28;1875;-84
2022/04/02 01:11:03;;;;;;;2.70;2.60;;;;;;;3.95;59.77;100677.78;687825;28;2076;-84
2022/04/02 01:11:45;;;;;;;3.10;2.80;;;;;;;3.94;59.88;100676.03;693368;28;825;-83
2022/04/02 01:12:06;;;;;;;2.90;2.60;;;;;;;4.03;60.01;100693.69;690604;28;1227;-85
2022/04/02 01:12:29;;;;;;;2.60;2.40;;;;;;;3.95;60.07;100680.38;690366;28;1488;-84
2022/04/02 01:12:52;;;;;;;3.63;2.50;;;;;;;3.96;60.03;100674.41;688775;28;1207;-83
2022/04/02 01:13:14;;;;;;;4.83;2.60;;;;;;;4.02;59.76;100690.22;692330;28;1692;-84
2022/04/02 01:13:35;;;;;;;5.10;2.50;;;;;;;4.03;59.79;100685.94;686772;28;1805;-84
2022/04/02 01:14:00;;;;;;;2.50;2.30;;;;;;;3.99;59.56;100687.50;689854;28;1155;-84
2022/04/02 01:14:21;;;;;;;2.47;2.30;;;;;;;3.95;59.73;100680.38;682511;29;1236;-84
2022/04/02 01:14:44;;;;;;;2.47;2.28;;;;;;;4.00;59.97;100690.94;690478;28;1933;-83
2022/04/02 01:15:21;;;;;;;3.00;2.67;;;;;;;4.06;59.60;100693.88;690489;28;1112;-84
2022/04/02 01:15:46;;;;;;;3.47;2.67;;;;;;;4.02;59.78;100684.16;694687;28;1720;-84
2022/04/02 01:16:09;;;;;;;3.88;2.60;;;;;;;4.05;59.29;100689.50;687783;28;1007;-84
2022/04/02 01:16:34;;;;;;;3.78;2.30;;;;;;;3.85;59.72;100693.59;686468;28;1605;-84
2022/04/02 01:17:01;;;;;;;6.10;2.47;;;;;;;3.80;59.91;100685.63;684103;28;1465;-85
2022/04/02 01:17:22;;;;;;;6.47;2.65;;;;;;;3.81;60.28;100696.00;684852;28;1568;-84
2022/04/02 01:17:43;;;;;;;5.10;2.83;;;;;;;3.81;60.34;100701.16;685064;28;1743;-84
2022/04/02 01:18:09;;;;;;;3.03;2.80;;;;;;;3.83;60.25;100707.31;685001;28;1236;-84
2022/04/02 01:18:31;;;;;;;3.10;2.78;;;;;;;3.80;60.35;100698.53;687580;28;1739;-84
2022/04/02 01:18:52;;;;;;;3.38;2.72;;;;;;;3.83;60.45;100707.31;693034;28;1145;-84
2022/04/02 01:19:19;;;;;;;3.90;3.13;;;;;;;3.75;60.23;100692.22;693088;28;1196;-84
2022/04/02 01:19:42;;;;;;;4.10;2.92;;;;;;;3.72;60.54;100687.75;687152;28;1430;-84
2022/04/02 01:20:10;;;;;;;3.08;2.78;;;;;;;3.68;60.53;100697.03;690460;28;985;-84
2022/04/02 01:20:31;;;;;;;3.65;2.47;;;;;;;3.68;60.39;100693.59;692037;28;1228;-84
2022/04/02 01:20:58;;;;;;;2.83;2.20;;;;;;;3.70;60.31;100695.41;693347;28;1173;-84
2022/04/02 01:21:26;;;;;;;3.08;2.33;;;;;;;3.64;60.32;100692.53;690669;28;799;-84
2022/04/02 01:21:50;;;;;;;2.80;2.60;;;;;;;3.69;60.59;100701.38;688677;28;1167;-83
2022/04/02 01:22:22;;;;;;;3.45;2.72;;;;;;;3.73;60.71;100702.44;688777;28;1790;-84
2022/04/02 01:22:49;;;;;;;3.70;2.75;;;;;;;3.72;60.76;100702.38;690787;28;1005;-84
2022/04/02 01:23:10;;;;;;;2.80;2.60;;;;;;;3.67;60.58;100686.63;693187;28;1273;-83
2022/04/02 01:23:36;;;;;;;2.70;2.50;;;;;;;3.86;60.76;100695.38;690525;28;1941;-83
2022/04/02 01:24:04;;;;;;;2.70;2.30;;;;;;;3.88;60.44;100709.25;684947;28;1515;-83
2022/04/02 01:24:25;;;;;;;2.50;2.30;;;;;;;3.79;60.58;100700.22;687681;28;1659;-83
2022/04/02 01:24:49;;;;;;;3.00;2.60;;;;;;;3.71;60.42;100688.56;686963;28;1399;-82
2022/04/02 01:25:11;;;;;;;3.10;2.70;;;;;;;3.76;60.47;100706.88;682463;29;1295;-83
2022/04/02 01:25:38;;;;;;;3.33;2.70;;;;;;;3.68;60.57;100704.78;690355;28;1713;-83
2022/04/02 01:26:08;;;;;;;3.10;2.80;;;;;;;3.72;60.64;100698.09;687623;28;1971;-83
2022/04/02 01:26:34;;;;;;;3.00;2.70;;;;;;;3.82;60.17;100712.41;689665;28;1580;-83
2022/04/02 01:27:09;;;;;;;2.80;2.60;;;;;;;3.79;60.25;100707.94;685123;28;1148;-83
2022/04/02 01:27:31;;;;;;;2.70;2.50;;;;;;;3.77;60.55;100709.56;685110;28;1009;-82
2022/04/02 01:27:53;;;;;;;2.85;2.55;;;;;;;3.72;60.37;100695.50;687801;28;1127;-82
2022/04/02 01:28:14;;;;;;;2.58;2.35;;;;;;;3.82;60.32;100700.34;687953;28;1076;-82
2022/04/02 01:28:34;;;;;;;2.53;2.27;;;;;;;3.91;59.91;100701.66;687329;28;1243;-82
2022/04/02 01:28:57;;;;;;;2.40;2.20;;;;;;;3.85;59.74;100696.19;688977;28;1155;-82
2022/04/02 01:29:24;;;;;;;2.60;2.40;;;;;;;3.96;59.84;100713.13;692994;28;850;-83
2022/04/02 01:30:03;;;;;;;2.60;2.40;;;;;;;3.82;59.73;100704.66;692777;28;1107;-83
2022/04/02 01:30:24;;;;;;;2.47;2.30;;;;;;;3.82;59.62;100694.31;690210;28;823;-83
2022/04/02 01:30:46;;;;;;;2.22;2.13;;;;;;;3.97;59.27;100708.06;692911;28;1301;-82
2022/04/02 01:31:07;;;;;;;2.50;2.37;;;;;;;3.97;59.77;100709.75;692969;28;1740;-82
2022/04/02 01:31:28;;;;;;;2.50;2.30;;;;;;;4.01;59.29;100705.63;691165;28;1523;-82
2022/04/02 01:31:50;;;;;;;2.50;2.30;;;;;;;4.05;59.28;100713.63;687761;28;1182;-83
2022/04/02 01:32:15;;;;;;;2.92;2.40;;;;;;;4.01;59.33;100698.78;690589;28;939;-82
2022/04/02 01:32:42;;;;;;;4.13;2.95;;;;;;;4.07;59.29;100712.03;687852;28;883;-82
2022/04/02 01:33:05;;;;;;;4.00;3.00;;;;;;;4.04;59.09;100708.41;695457;28;1383;-82
2022/04/02 01:33:26;;;;;;;3.00;2.70;;;;;;;4.04;59.08;100700.66;691258;28;1576;-82
2022/04/02 01:33:50;;;;;;;2.80;2.60;;;;;;;4.15;58.95;100716.69;695946;28;1162;-83
2022/04/02 01:34:12;;;;;;;2.75;2.55;;;;;;;4.10;58.87;100704.44;693422;28;1072;-82
2022/04/02 01:34:35;;;;;;;2.70;2.50;;;;;;;4.10;58.78;100708.69;693098;28;1350;-82
2022/04/02 01:35:08;;;;;;;3.20;2.45;;;;;;;4.07;58.55;100698.22;688273;28;1314;-83
2022/04/02 01:35:29;;;;;;;4.75;2.33;;;;;;;4.07;58.96;100701.72;689087;28;1687;-82
2022/04/02 01:36:13;;;;;;;3.50;2.30;;;;;;;4.09;58.75;100704.34;683075;28;1704;-85
2022/04/02 01:36:49;;;;;;;3.42;2.50;;;;;;;4.10;58.55;100704.44;687503;28;1702;-85
2022/04/02 01:37:18;;;;;;;4.28;2.80;;;;;;;4.13;58.24;100707.97;687773;28;1437;-84
2022/04/02 01:37:44;;;;;;;6.00;2.60;;;;;;;4.11;58.72;100705.34;690624;28;877;-84
2022/04/02 01:38:07;;;;;;;6.47;2.90;;;;;;;4.12;58.65;100704.53;682520;28;1169;-84
2022/04/02 01:38:29;;;;;;;4.32;2.80;;;;;;;4.11;58.63;100715.69;684907;28;1647;-84
2022/04/02 01:38:50;;;;;;;5.20;3.10;;;;;;;4.11;58.47;100707.94;687761;28;1339;-85
2022/04/02 01:39:12;;;;;;;3.70;2.70;;;;;;;4.10;58.51;100701.84;690299;28;1303;-84
2022/04/02 01:39:33;;;;;;;4.07;2.65;;;;;;;4.10;58.54;100699.28;691775;28;1610;-84
2022/04/02 01:39:54;;;;;;;2.67;2.47;;;;;;;4.16;58.70;100708.16;693604;28;1196;-85
2022/04/02 01:40:19;;;;;;;2.80;2.50;;;;;;;4.15;58.38;100712.44;690454;28;1238;-85
2022/04/02 01:40:40;;;;;;;2.60;2.40;;;;;;;4.09;58.34;100699.19;690447;28;1076;-83
2022/04/02 01:41:03;;;;;;;2.70;2.50;;;;;;;4.10;58.19;100704.44;687363;28;1446;-84
2022/04/02 01:41:31;;;;;;;3.00;2.60;;;;;;;4.10;58.41;100699.28;691871;28;951;-84
2022/04/02 01:41:52;;;;;;;3.10;2.50;;;;;;;4.09;58.62;100702.66;693137;28;1154;-84
2022/04/02 01:42:20;;;;;;;2.85;2.53;;;;;;;4.09;58.28;100702.66;690530;28;1253;-85
2022/04/02 01:42:49;;;;;;;2.45;2.30;;;;;;;4.15;58.14;100704.69;687695;28;1108;-85
2022/04/02 01:43:09;;;;;;;3.00;2.50;;;;;;;4.11;58.32;100703.63;687855;28;1116;-84
2022/04/02 01:43:33;;;;;;;3.30;2.67;;;;;;;4.19;58.26;100714.38;687706;28;1453;-85
2022/04/02 01:43:53;;;;;;;2.95;2.67;;;;;;;4.19;58.55;100704.06;693185;28;1134;-85
2022/04/02 01:44:15;;;;;;;3.20;2.60;;;;;;;4.16;58.02;100700.41;694893;28;1771;-85
2022/04/02 01:44:36;;;;;;;3.08;2.50;;;;;;;4.21;58.33;100717.03;693060;28;1524;-84
2022/04/02 01:44:56;;;;;;;3.55;2.40;;;;;;;4.07;58.18;100699.13;691555;28;1134;-85
2022/04/02 01:45:52;;;;;;;3.00;2.60;;;;;;;4.14;58.45;100721.00;684433;28;1448;-84
2022/04/02 01:46:17;;;;;;;3.28;2.70;;;;;;;4.10;58.54;100709.59;685949;28;1099;-84
2022/04/02 01:46:40;;;;;;;3.10;2.80;;;;;;;4.10;58.60;100714.78;693244;28;1305;-84
2022/04/02 01:47:02;;;;;;;3.78;3.00;;;;;;;4.09;58.50;100723.34;689574;28;1396;-84
2022/04/02 01:47:26;;;;;;;3.80;2.70;;;;;;;4.11;58.39;100719.13;687739;28;1501;-84
2022/04/02 01:47:51;;;;;;;3.30;2.53;;;;;;;4.04;58.41;100698.94;687408;28;1179;-84
2022/04/02 01:48:12;;;;;;;2.70;2.50;;;;;;;3.97;58.26;100702.91;690471;28;1559;-84
2022/04/02 01:48:40;;;;;;;3.60;2.60;;;;;;;4.02;58.62;100712.56;695937;28;1819;-84
2022/04/02 01:49:03;;;;;;;3.75;2.53;;;;;;;4.02;58.45;100710.88;693170;28;1184;-84
2022/04/02 01:49:23;;;;;;;2.95;2.53;;;;;;;4.06;58.40;100723.16;690465;28;1669;-84
2022/04/02 01:49:44;;;;;;;3.00;2.70;;;;;;;4.01;58.73;100714.28;687386;28;854;-84
2022/04/02 01:50:07;;;;;;;2.88;2.60;;;;;;;4.02;58.63;100708.31;687810;28;1066;-85
2022/04/02 01:50:32;;;;;;;3.13;2.72;;;;;;;4.03;58.77;100704.91;689845;28;1955;-84
2022/04/02 01:50:54;;;;;;;2.92;2.63;;;;;;;4.04;58.04;100709.28;694370;28;1111;-84